Time;durP1;ratioP1;P1;durP2;ratioP2;P2;SDS_P1;SDS_P2;PMS_P1;PMS_P2;Temp;Humidity;BMP_temperature;BMP_pressure;BME280_temperature;BME280_humidity;BME280_pressure;Samples;Min_cycle;Max_cycle;Signal;HPM_P1;HPM_P2
2020/12/01 00:01:56;;;;;;;17.35;10.15;;;;;;;;;;5050119;28;20408;-67
2020/12/01 00:04:23;;;;;;;16.45;9.88;;;;;;;;;;5040155;28;20404;-68
2020/12/01 00:06:49;;;;;;;15.18;9.77;;;;;;;;;;5041252;28;20405;-67
2020/12/01 00:09:15;;;;;;;15.32;10.10;;;;;;;;;;5042505;28;20129;-67
2020/12/01 00:11:41;;;;;;;17.92;9.88;;;;;;;;;;5031799;28;20045;-67
2020/12/01 00:14:08;;;;;;;16.77;10.20;;;;;;;;;;5044865;28;20435;-67
2020/12/01 00:16:34;;;;;;;17.63;9.43;;;;;;;;;;5041171;28;20051;-68
2020/12/01 00:19:01;;;;;;;18.27;10.32;;;;;;;;;;5034584;28;20052;-68
2020/12/01 00:21:27;;;;;;;17.40;10.32;;;;;;;;;;5044975;28;20043;-67
2020/12/01 00:23:53;;;;;;;17.38;9.65;;;;;;;;;;5033795;28;20049;-67
2020/12/01 00:26:20;;;;;;;14.50;9.80;;;;;;;;;;5037515;28;20048;-67
2020/12/01 00:28:46;;;;;;;15.55;10.02;;;;;;;;;;5040294;28;20041;-68
2020/12/01 00:31:14;;;;;;;19.10;11.27;;;;;;;;;;5044477;28;20059;-67
2020/12/01 00:33:40;;;;;;;14.55;9.55;;;;;;;;;;5042446;28;20559;-68
2020/12/01 00:36:06;;;;;;;17.05;9.77;;;;;;;;;;5040254;28;20041;-67
2020/12/01 00:38:33;;;;;;;16.23;9.85;;;;;;;;;;5041086;28;20052;-67
2020/12/01 00:40:59;;;;;;;17.98;10.80;;;;;;;;;;5038677;28;20532;-67
2020/12/01 00:43:25;;;;;;;18.00;10.90;;;;;;;;;;5035521;28;20550;-67
2020/12/01 00:45:51;;;;;;;17.25;10.32;;;;;;;;;;5039897;28;20055;-68
2020/12/01 00:48:18;;;;;;;20.58;11.93;;;;;;;;;;5042722;28;20148;-67
2020/12/01 00:50:44;;;;;;;20.02;12.05;;;;;;;;;;5047497;28;20041;-68
2020/12/01 00:53:12;;;;;;;18.80;11.05;;;;;;;;;;5025876;28;20091;-67
2020/12/01 00:55:39;;;;;;;19.50;11.23;;;;;;;;;;5022708;28;20048;-68
2020/12/01 00:58:06;;;;;;;17.70;10.68;;;;;;;;;;5021877;28;20045;-68
2020/12/01 01:00:37;;;;;;;17.98;11.50;;;;;;;;;;5026175;28;20041;-68
2020/12/01 01:03:13;;;;;;;18.05;10.82;;;;;;;;;;5018247;28;20091;-67
2020/12/01 01:05:39;;;;;;;21.80;11.98;;;;;;;;;;5036883;28;20036;-67
2020/12/01 01:08:05;;;;;;;21.38;12.73;;;;;;;;;;5042537;28;20044;-68
2020/12/01 01:10:32;;;;;;;19.73;11.75;;;;;;;;;;5045306;28;20154;-68
2020/12/01 01:12:59;;;;;;;19.40;10.85;;;;;;;;;;5043473;28;20050;-68
2020/12/01 01:15:27;;;;;;;22.03;12.23;;;;;;;;;;5043537;28;20048;-67
2020/12/01 01:17:54;;;;;;;21.30;12.70;;;;;;;;;;5046033;28;20314;-67
2020/12/01 01:20:20;;;;;;;21.65;12.75;;;;;;;;;;5045918;28;20044;-67
2020/12/01 01:22:46;;;;;;;21.80;12.57;;;;;;;;;;5045939;28;20548;-68
2020/12/01 01:25:13;;;;;;;22.23;13.38;;;;;;;;;;5042896;28;20564;-68
2020/12/01 01:27:39;;;;;;;20.65;12.48;;;;;;;;;;5050026;28;20554;-68
2020/12/01 01:30:06;;;;;;;20.83;12.17;;;;;;;;;;5040734;28;20037;-68
2020/12/01 01:32:32;;;;;;;21.15;12.50;;;;;;;;;;5049291;28;20778;-67
2020/12/01 01:34:59;;;;;;;20.42;11.60;;;;;;;;;;5048526;28;20049;-67
2020/12/01 01:37:25;;;;;;;21.35;11.65;;;;;;;;;;5046580;28;20042;-68
2020/12/01 01:39:51;;;;;;;19.27;11.68;;;;;;;;;;5063395;28;20060;-68
2020/12/01 01:42:18;;;;;;;20.60;11.77;;;;;;;;;;5045185;28;20110;-68
2020/12/01 01:44:44;;;;;;;20.10;11.25;;;;;;;;;;5043363;28;20045;-68
2020/12/01 01:47:13;;;;;;;19.10;11.27;;;;;;;;;;5043883;28;20053;-67
2020/12/01 01:49:41;;;;;;;21.38;11.52;;;;;;;;;;5051721;28;20080;-67
2020/12/01 01:52:36;;;;;;;19.50;12.05;;;;;;;;;;5056052;28;20087;-68
2020/12/01 01:55:07;;;;;;;18.35;11.52;;;;;;;;;;5033210;28;20121;-67
2020/12/01 01:57:34;;;;;;;20.42;11.23;;;;;;;;;;5045434;28;20041;-67
2020/12/01 02:00:02;;;;;;;19.88;11.00;;;;;;;;;;5046685;28;20045;-67
2020/12/01 02:02:30;;;;;;;18.85;11.05;;;;;;;;;;5053373;28;20041;-68
2020/12/01 02:04:56;;;;;;;20.40;11.35;;;;;;;;;;5045122;28;20049;-67
2020/12/01 02:07:22;;;;;;;19.52;11.93;;;;;;;;;;5048976;28;20114;-68
2020/12/01 02:09:51;;;;;;;19.50;11.55;;;;;;;;;;5057523;28;20483;-68
2020/12/01 02:12:18;;;;;;;20.83;11.52;;;;;;;;;;5052044;28;20124;-68
2020/12/01 02:14:56;;;;;;;18.83;10.75;;;;;;;;;;5050276;28;20133;-68
2020/12/01 02:17:27;;;;;;;18.02;10.68;;;;;;;;;;5044107;28;20045;-68
2020/12/01 02:19:55;;;;;;;21.80;11.80;;;;;;;;;;5044938;28;20535;-68
2020/12/01 02:22:22;;;;;;;20.38;11.00;;;;;;;;;;5055161;28;20044;-68
2020/12/01 02:24:48;;;;;;;18.83;9.98;;;;;;;;;;5044171;28;20041;-68
2020/12/01 02:27:17;;;;;;;18.40;11.05;;;;;;;;;;5053655;28;20055;-69
2020/12/01 02:29:45;;;;;;;17.23;10.35;;;;;;;;;;5050223;28;20452;-68
2020/12/01 02:32:12;;;;;;;17.13;10.50;;;;;;;;;;5039395;28;20044;-68
2020/12/01 02:34:42;;;;;;;12.93;8.02;;;;;;;;;;5047479;28;20067;-68
2020/12/01 02:37:09;;;;;;;18.60;10.98;;;;;;;;;;5049160;28;20034;-68
2020/12/01 02:39:36;;;;;;;17.90;11.05;;;;;;;;;;5042382;28;20053;-68
2020/12/01 02:42:04;;;;;;;17.83;11.55;;;;;;;;;;5052492;28;20534;-68
2020/12/01 02:44:30;;;;;;;;;;;;;;;;;;5059753;28;20048;-68
2020/12/01 02:46:59;;;;;;;19.50;11.75;;;;;;;;;;5055507;28;19924;-68
2020/12/01 02:49:25;;;;;;;21.23;11.95;;;;;;;;;;5044777;28;20045;-68
2020/12/01 02:51:51;;;;;;;22.95;12.25;;;;;;;;;;5044460;28;20493;-68
2020/12/01 02:54:17;;;;;;;24.05;13.80;;;;;;;;;;5045774;28;20193;-67
2020/12/01 02:56:45;;;;;;;25.70;12.50;;;;;;;;;;5053033;28;20141;-68
2020/12/01 02:59:11;;;;;;;;;;;;;;;;;;5043348;28;20049;-68
2020/12/01 03:01:37;;;;;;;22.85;13.05;;;;;;;;;;5043714;28;19932;-68
2020/12/01 03:04:03;;;;;;;24.17;13.18;;;;;;;;;;5056245;28;20051;-68
2020/12/01 03:06:30;;;;;;;29.67;14.88;;;;;;;;;;5049225;28;20053;-68
2020/12/01 03:08:56;;;;;;;29.08;14.50;;;;;;;;;;5047809;28;20120;-67
2020/12/01 03:11:22;;;;;;;25.00;13.57;;;;;;;;;;5036891;28;20053;-67
2020/12/01 03:13:49;;;;;;;26.05;14.30;;;;;;;;;;5051130;28;20040;-68
2020/12/01 03:16:15;;;;;;;24.80;14.20;;;;;;;;;;5052792;28;20037;-68
2020/12/01 03:18:42;;;;;;;26.13;14.00;;;;;;;;;;5040947;28;20049;-68
2020/12/01 03:21:10;;;;;;;21.88;11.95;;;;;;;;;;5040137;28;20041;-68
2020/12/01 03:23:36;;;;;;;24.98;12.82;;;;;;;;;;5046290;28;20541;-68
2020/12/01 03:26:02;;;;;;;21.63;12.43;;;;;;;;;;5047317;28;20062;-68
2020/12/01 03:28:29;;;;;;;20.23;12.13;;;;;;;;;;5041227;28;20052;-68
2020/12/01 03:30:55;;;;;;;23.63;13.55;;;;;;;;;;5028326;28;20460;-68
2020/12/01 03:33:22;;;;;;;22.92;12.98;;;;;;;;;;5039286;28;20053;-68
2020/12/01 03:35:48;;;;;;;18.67;11.05;;;;;;;;;;5047865;28;20033;-68
2020/12/01 03:38:15;;;;;;;22.05;12.77;;;;;;;;;;5038068;28;20444;-68
2020/12/01 03:40:41;;;;;;;22.55;13.73;;;;;;;;;;5040900;28;20044;-68
2020/12/01 03:43:08;;;;;;;23.55;14.05;;;;;;;;;;5040850;28;20077;-68
2020/12/01 03:45:35;;;;;;;16.97;9.90;;;;;;;;;;5049053;28;20064;-68
2020/12/01 03:48:01;;;;;;;20.00;12.15;;;;;;;;;;5047438;28;20049;-68
2020/12/01 03:50:27;;;;;;;25.38;12.82;;;;;;;;;;5048732;28;20095;-67
2020/12/01 03:52:53;;;;;;;22.48;13.23;;;;;;;;;;5049846;28;20033;-68
2020/12/01 03:55:20;;;;;;;22.05;13.00;;;;;;;;;;5038487;28;20045;-67
2020/12/01 03:57:47;;;;;;;20.83;12.27;;;;;;;;;;5049572;28;20064;-67
2020/12/01 04:00:15;;;;;;;18.80;11.75;;;;;;;;;;5034625;28;20045;-67
2020/12/01 04:02:41;;;;;;;19.88;12.02;;;;;;;;;;5044067;28;20041;-67
2020/12/01 04:05:08;;;;;;;18.58;11.55;;;;;;;;;;5044470;28;20118;-68
2020/12/01 04:07:35;;;;;;;21.98;12.93;;;;;;;;;;5042227;28;20557;-67
2020/12/01 04:10:01;;;;;;;19.48;11.68;;;;;;;;;;5061567;28;20392;-68
2020/12/01 04:12:28;;;;;;;16.98;10.70;;;;;;;;;;5046540;28;20071;-68
2020/12/01 04:14:55;;;;;;;20.35;12.60;;;;;;;;;;5044732;28;20063;-68
2020/12/01 04:17:21;;;;;;;19.35;12.45;;;;;;;;;;5049126;28;20079;-67
2020/12/01 04:19:48;;;;;;;22.35;13.30;;;;;;;;;;5040008;28;20048;-68
2020/12/01 04:22:14;;;;;;;22.02;12.85;;;;;;;;;;5041606;28;20045;-67
2020/12/01 04:24:41;;;;;;;24.48;13.25;;;;;;;;;;5044966;28;20099;-67
2020/12/01 04:27:08;;;;;;;21.88;12.15;;;;;;;;;;5051825;28;20128;-67
2020/12/01 04:29:34;;;;;;;19.20;11.57;;;;;;;;;;5043738;28;20038;-67
2020/12/01 04:32:00;;;;;;;21.50;12.80;;;;;;;;;;5037829;28;20069;-68
2020/12/01 04:34:26;;;;;;;22.58;12.80;;;;;;;;;;5041719;28;20037;-67
2020/12/01 04:36:53;;;;;;;27.45;14.43;;;;;;;;;;5037293;28;20064;-68
2020/12/01 04:39:19;;;;;;;21.77;12.88;;;;;;;;;;5045633;28;20085;-68
2020/12/01 04:41:45;;;;;;;21.08;12.65;;;;;;;;;;5046725;28;20045;-68
2020/12/01 04:44:29;;;;;;;21.90;11.43;;;;;;;;;;5037879;28;20452;-67
2020/12/01 04:46:57;;;;;;;22.77;11.93;;;;;;;;;;5047564;28;20053;-68
2020/12/01 04:49:27;;;;;;;19.85;12.07;;;;;;;;;;5040396;28;20136;-68
2020/12/01 04:52:08;;;;;;;20.98;12.15;;;;;;;;;;5043944;28;20439;-68
2020/12/01 04:54:46;;;;;;;21.55;12.18;;;;;;;;;;5045608;28;20061;-68
2020/12/01 04:57:21;;;;;;;20.13;11.70;;;;;;;;;;5026141;28;20047;-69
2020/12/01 04:59:58;;;;;;;18.60;10.93;;;;;;;;;;5039361;28;20055;-68
2020/12/01 05:02:37;;;;;;;17.42;11.18;;;;;;;;;;5038321;28;20045;-68
2020/12/01 05:05:28;;;;;;;19.00;11.27;;;;;;;;;;5034643;28;20041;-67
2020/12/01 05:08:17;;;;;;;20.23;11.45;;;;;;;;;;5033028;28;20041;-67
2020/12/01 05:10:43;;;;;;;;;;;;;;;;;;5039940;28;20037;-68
2020/12/01 05:13:21;;;;;;;19.35;11.18;;;;;;;;;;5040758;28;20287;-67
2020/12/01 05:15:53;;;;;;;20.88;11.57;;;;;;;;;;5043439;28;20072;-67
2020/12/01 05:18:32;;;;;;;21.25;12.48;;;;;;;;;;5038724;28;20091;-67
2020/12/01 05:21:00;;;;;;;22.88;12.95;;;;;;;;;;5041358;28;20044;-68
2020/12/01 05:23:35;;;;;;;25.00;13.45;;;;;;;;;;5045625;28;20040;-68
2020/12/01 05:26:03;;;;;;;25.05;13.45;;;;;;;;;;5045806;28;20034;-67
2020/12/01 05:28:29;;;;;;;23.42;13.40;;;;;;;;;;5034677;28;20042;-68
2020/12/01 05:31:03;;;;;;;21.33;12.57;;;;;;;;;;5040700;28;20095;-67
2020/12/01 05:33:31;;;;;;;22.80;13.00;;;;;;;;;;5048969;28;20037;-67
2020/12/01 05:36:24;;;;;;;24.40;13.23;;;;;;;;;;5040653;28;20048;-67
2020/12/01 05:39:01;;;;;;;24.08;12.80;;;;;;;;;;5045477;28;20064;-67
2020/12/01 05:41:28;;;;;;;21.40;12.65;;;;;;;;;;5043636;28;20497;-67
2020/12/01 05:43:57;;;;;;;24.02;13.50;;;;;;;;;;5046068;28;20044;-68
2020/12/01 05:46:36;;;;;;;24.27;13.35;;;;;;;;;;5040619;28;20547;-67
2020/12/01 05:49:04;;;;;;;27.88;14.18;;;;;;;;;;5036307;28;20720;-67
2020/12/01 05:51:41;;;;;;;26.42;14.00;;;;;;;;;;5041164;28;20072;-67
2020/12/01 05:54:16;;;;;;;27.95;14.80;;;;;;;;;;5045453;28;20041;-67
2020/12/01 05:56:46;;;;;;;24.10;13.23;;;;;;;;;;5046907;28;20056;-67
2020/12/01 05:59:14;;;;;;;26.63;14.63;;;;;;;;;;5046802;28;20045;-67
2020/12/01 06:01:40;;;;;;;;;;;;;;;;;;5025628;28;20029;-67
2020/12/01 06:04:10;;;;;;;26.50;13.65;;;;;;;;;;5057594;28;19999;-67
2020/12/01 06:06:43;;;;;;;21.92;13.02;;;;;;;;;;5048288;28;20049;-67
2020/12/01 06:09:18;;;;;;;24.50;12.68;;;;;;;;;;5050476;28;20040;-67
2020/12/01 06:11:52;;;;;;;29.25;14.13;;;;;;;;;;5038518;28;20045;-68
2020/12/01 06:14:31;;;;;;;22.92;13.10;;;;;;;;;;5053576;28;20045;-67
2020/12/01 06:17:01;;;;;;;25.17;14.73;;;;;;;;;;5053368;28;20045;-67
2020/12/01 06:19:33;;;;;;;23.48;13.50;;;;;;;;;;5043736;28;20049;-67
2020/12/01 06:22:05;;;;;;;27.38;15.52;;;;;;;;;;5050857;28;20044;-67
2020/12/01 06:24:51;;;;;;;25.95;15.10;;;;;;;;;;5046377;28;20064;-67
2020/12/01 06:27:17;;;;;;;23.35;13.90;;;;;;;;;;5049612;28;20098;-67
2020/12/01 06:29:43;;;;;;;24.90;14.02;;;;;;;;;;5052450;28;20041;-67
2020/12/01 06:32:12;;;;;;;26.50;15.00;;;;;;;;;;5057613;28;20649;-67
2020/12/01 06:35:02;;;;;;;27.25;14.93;;;;;;;;;;5049558;28;20114;-67
2020/12/01 06:37:39;;;;;;;32.45;16.80;;;;;;;;;;5045930;28;20041;-67
2020/12/01 06:40:11;;;;;;;28.52;15.43;;;;;;;;;;5041065;28;20510;-67
2020/12/01 06:42:39;;;;;;;30.80;16.25;;;;;;;;;;5054530;28;20567;-67
2020/12/01 06:45:19;;;;;;;34.88;17.38;;;;;;;;;;5037665;28;20449;-67
2020/12/01 06:47:47;;;;;;;31.17;16.58;;;;;;;;;;5043191;28;20062;-67
2020/12/01 06:50:15;;;;;;;34.30;17.77;;;;;;;;;;5053885;28;20489;-67
2020/12/01 06:52:41;;;;;;;29.02;16.60;;;;;;;;;;5060143;28;20041;-67
2020/12/01 06:55:27;;;;;;;32.05;16.60;;;;;;;;;;5046773;28;20063;-67
2020/12/01 06:57:53;;;;;;;29.33;15.82;;;;;;;;;;5050876;28;20041;-67
2020/12/01 07:00:25;;;;;;;37.38;17.83;;;;;;;;;;5052133;28;20048;-67
2020/12/01 07:02:51;;;;;;;35.13;18.38;;;;;;;;;;5070367;28;20037;-67
2020/12/01 07:05:30;;;;;;;34.25;17.75;;;;;;;;;;5050570;28;20098;-67
2020/12/01 07:07:57;;;;;;;32.67;17.35;;;;;;;;;;5037498;28;20049;-67
2020/12/01 07:10:26;;;;;;;36.25;17.55;;;;;;;;;;5059929;28;20053;-67
2020/12/01 07:13:07;;;;;;;37.53;18.63;;;;;;;;;;5059169;28;20052;-67
2020/12/01 07:15:51;;;;;;;37.63;18.33;;;;;;;;;;5046982;28;20562;-67
2020/12/01 07:18:31;;;;;;;36.00;17.63;;;;;;;;;;5051132;28;20041;-67
2020/12/01 07:21:03;;;;;;;30.83;17.42;;;;;;;;;;5044083;28;20037;-67
2020/12/01 07:23:32;;;;;;;33.97;16.77;;;;;;;;;;5039196;28;20048;-68
2020/12/01 07:26:11;;;;;;;32.30;16.02;;;;;;;;;;5041146;28;20041;-67
2020/12/01 07:28:44;;;;;;;36.92;16.48;;;;;;;;;;5053965;28;20044;-67
2020/12/01 07:31:20;;;;;;;37.92;17.05;;;;;;;;;;5048973;28;20044;-67
2020/12/01 07:33:50;;;;;;;45.17;16.88;;;;;;;;;;5058130;28;20061;-67
2020/12/01 07:36:26;;;;;;;38.28;16.67;;;;;;;;;;5051385;28;20059;-67
2020/12/01 07:39:04;;;;;;;37.88;16.77;;;;;;;;;;5057738;28;20044;-67
2020/12/01 07:41:31;;;;;;;43.53;18.08;;;;;;;;;;5038973;28;20124;-67
2020/12/01 07:43:58;;;;;;;36.33;13.52;;;;;;;;;;5037912;28;20084;-67
2020/12/01 07:46:24;;;;;;;39.53;17.98;;;;;;;;;;5055358;28;20095;-68
2020/12/01 07:49:00;;;;;;;41.25;17.90;;;;;;;;;;5046603;28;20075;-67
2020/12/01 07:51:28;;;;;;;40.80;17.63;;;;;;;;;;5053217;28;20052;-67
2020/12/01 07:53:56;;;;;;;43.42;18.10;;;;;;;;;;5045569;28;20079;-67
2020/12/01 07:56:24;;;;;;;40.13;18.10;;;;;;;;;;5047720;28;20051;-67
2020/12/01 07:59:11;;;;;;;36.28;18.02;;;;;;;;;;5048727;28;20110;-68
2020/12/01 08:01:37;;;;;;;40.55;17.33;;;;;;;;;;5048909;28;20461;-67
2020/12/01 08:04:05;;;;;;;44.65;17.10;;;;;;;;;;5043186;28;20041;-67
2020/12/01 08:06:31;;;;;;;;;;;;;;;;;;5032562;28;20045;-67
2020/12/01 08:08:57;;;;;;;41.40;15.80;;;;;;;;;;5051454;28;19928;-67
2020/12/01 08:11:24;;;;;;;44.92;17.23;;;;;;;;;;5055449;28;20135;-67
2020/12/01 08:13:51;;;;;;;38.53;16.45;;;;;;;;;;5041141;28;20041;-67
2020/12/01 08:16:19;;;;;;;39.50;16.40;;;;;;;;;;5044242;28;20072;-67
2020/12/01 08:18:46;;;;;;;39.80;17.42;;;;;;;;;;5039649;28;20429;-67
2020/12/01 08:21:14;;;;;;;50.40;16.98;;;;;;;;;;5043247;28;20043;-68
2020/12/01 08:23:41;;;;;;;39.28;17.77;;;;;;;;;;5054575;28;20045;-67
2020/12/01 08:26:12;;;;;;;38.38;17.55;;;;;;;;;;5046662;28;20049;-67
2020/12/01 08:28:40;;;;;;;33.08;15.77;;;;;;;;;;5045694;28;20498;-67
2020/12/01 08:31:11;;;;;;;36.58;16.55;;;;;;;;;;5047526;28;20454;-67
2020/12/01 08:33:47;;;;;;;40.45;17.65;;;;;;;;;;5055682;28;20091;-67
2020/12/01 08:36:19;;;;;;;33.90;16.75;;;;;;;;;;5049861;28;20099;-67
2020/12/01 08:39:02;;;;;;;35.05;16.67;;;;;;;;;;5044065;28;20095;-67
2020/12/01 08:41:36;;;;;;;35.22;17.27;;;;;;;;;;5045817;28;20045;-67
2020/12/01 08:44:06;;;;;;;38.05;16.98;;;;;;;;;;5045735;28;20099;-67
2020/12/01 08:46:33;;;;;;;32.58;16.48;;;;;;;;;;5041624;28;20520;-67
2020/12/01 08:49:07;;;;;;;33.45;16.90;;;;;;;;;;5047431;28;20042;-67
2020/12/01 08:51:35;;;;;;;31.25;16.40;;;;;;;;;;5054548;28;20032;-67
2020/12/01 08:54:07;;;;;;;33.75;17.65;;;;;;;;;;5037728;28;20493;-67
2020/12/01 08:56:53;;;;;;;35.05;18.13;;;;;;;;;;5048762;28;20045;-67
2020/12/01 08:59:23;;;;;;;36.35;18.05;;;;;;;;;;5042385;28;20041;-67
2020/12/01 09:01:49;;;;;;;38.50;18.92;;;;;;;;;;5052681;28;20080;-67
2020/12/01 09:04:23;;;;;;;37.65;17.98;;;;;;;;;;5045013;28;20037;-67
2020/12/01 09:06:51;;;;;;;36.28;17.65;;;;;;;;;;5045967;28;20076;-67
2020/12/01 09:09:28;;;;;;;35.53;18.08;;;;;;;;;;5058293;28;20123;-67
2020/12/01 09:17:18;;;;;;;34.50;17.80;;;;;;;;;;5038372;28;20172;-67
2020/12/01 09:22:23;;;;;;;37.70;17.98;;;;;;;;;;5035945;28;20069;-67
2020/12/01 09:24:49;;;;;;;34.47;17.13;;;;;;;;;;5048932;28;20610;-67
2020/12/01 09:27:16;;;;;;;36.42;18.45;;;;;;;;;;5062525;28;20139;-67
2020/12/01 09:29:47;;;;;;;40.25;18.23;;;;;;;;;;5049096;28;20100;-67
2020/12/01 09:32:19;;;;;;;41.97;19.23;;;;;;;;;;5043475;28;20108;-67
2020/12/01 09:34:45;;;;;;;39.22;19.20;;;;;;;;;;5050162;28;20505;-67
2020/12/01 09:37:11;;;;;;;39.17;18.33;;;;;;;;;;5040499;28;20049;-67
2020/12/01 09:39:38;;;;;;;39.47;19.08;;;;;;;;;;5046369;28;20060;-67
2020/12/01 09:42:12;;;;;;;41.78;19.88;;;;;;;;;;5047225;28;20053;-67
2020/12/01 09:47:08;;;;;;;38.03;18.77;;;;;;;;;;5055240;28;20151;-67
2020/12/01 09:49:34;;;;;;;37.05;18.73;;;;;;;;;;5050710;28;20041;-67
2020/12/01 09:52:15;;;;;;;37.83;19.05;;;;;;;;;;5057057;28;20048;-67
2020/12/01 09:55:02;;;;;;;43.03;20.40;;;;;;;;;;5047830;28;20033;-67
2020/12/01 09:57:46;;;;;;;33.85;18.20;;;;;;;;;;5046480;28;20497;-68
2020/12/01 10:07:29;;;;;;;37.28;18.83;;;;;;;;;;5049905;28;20055;-67
2020/12/01 10:11:16;;;;;;;36.15;18.42;;;;;;;;;;5039617;28;20048;-67
2020/12/01 10:30:53;;;;;;;42.25;20.35;;;;;;;;;;5061522;28;20132;-67
2020/12/01 10:34:54;;;;;;;46.15;21.23;;;;;;;;;;5052381;28;20064;-67
2020/12/01 10:37:20;;;;;;;39.40;19.63;;;;;;;;;;5044895;28;20044;-67
2020/12/01 10:39:47;;;;;;;40.80;19.83;;;;;;;;;;5048085;28;20040;-67
2020/12/01 10:42:14;;;;;;;40.15;19.52;;;;;;;;;;5054663;28;20036;-67
2020/12/01 10:44:41;;;;;;;35.22;19.08;;;;;;;;;;5045350;28;20052;-67
2020/12/01 10:47:07;;;;;;;37.85;18.98;;;;;;;;;;5050770;28;20619;-67
2020/12/01 10:49:33;;;;;;;39.67;19.75;;;;;;;;;;5052989;28;20045;-67
2020/12/01 10:52:00;;;;;;;37.88;19.92;;;;;;;;;;5041600;28;20032;-67
2020/12/01 10:54:27;;;;;;;40.83;20.73;;;;;;;;;;5048884;28;20045;-67
2020/12/01 10:56:54;;;;;;;43.35;21.85;;;;;;;;;;5051546;28;20046;-67
2020/12/01 10:59:21;;;;;;;37.53;19.20;;;;;;;;;;5059716;28;20717;-67
2020/12/01 11:01:48;;;;;;;40.97;20.33;;;;;;;;;;5047530;28;20046;-67
2020/12/01 11:04:14;;;;;;;38.35;19.75;;;;;;;;;;5053735;28;20064;-67
2020/12/01 11:06:41;;;;;;;43.28;19.73;;;;;;;;;;5047322;28;20119;-67
2020/12/01 11:09:07;;;;;;;39.45;19.08;;;;;;;;;;5049682;28;20048;-67
2020/12/01 11:11:34;;;;;;;37.17;19.35;;;;;;;;;;5054933;28;20041;-67
2020/12/01 11:14:00;;;;;;;33.97;17.90;;;;;;;;;;5039707;28;20094;-67
2020/12/01 11:16:27;;;;;;;39.97;21.02;;;;;;;;;;5047732;28;20099;-67
2020/12/01 11:18:53;;;;;;;36.08;19.17;;;;;;;;;;5052857;28;20083;-67
2020/12/01 11:21:19;;;;;;;36.25;19.90;;;;;;;;;;5040265;28;20060;-67
2020/12/01 11:23:46;;;;;;;25.17;13.50;;;;;;;;;;5050896;28;20083;-67
2020/12/01 11:26:13;;;;;;;37.55;18.75;;;;;;;;;;5046152;28;20053;-67
2020/12/01 11:28:39;;;;;;;34.42;20.35;;;;;;;;;;5042617;28;20087;-67
2020/12/01 11:31:06;;;;;;;37.55;18.67;;;;;;;;;;5043487;28;20040;-67
2020/12/01 11:33:42;;;;;;;33.10;18.48;;;;;;;;;;5051917;28;20529;-67
2020/12/01 11:36:09;;;;;;;35.08;18.95;;;;;;;;;;5042591;28;20040;-67
2020/12/01 11:38:35;;;;;;;32.47;18.42;;;;;;;;;;5041237;28;20041;-67
2020/12/01 11:41:01;;;;;;;32.85;18.55;;;;;;;;;;5051338;28;20378;-67
2020/12/01 11:43:28;;;;;;;34.33;19.27;;;;;;;;;;5055362;28;20048;-67
2020/12/01 11:45:54;;;;;;;34.40;18.75;;;;;;;;;;5040957;28;20539;-67
2020/12/01 11:48:21;;;;;;;34.80;18.80;;;;;;;;;;5044721;28;20053;-67
2020/12/01 11:50:47;;;;;;;36.03;19.70;;;;;;;;;;5045848;28;20040;-67
2020/12/01 11:53:14;;;;;;;40.38;20.20;;;;;;;;;;5037234;28;20083;-67
2020/12/01 11:55:40;;;;;;;37.03;19.95;;;;;;;;;;5049951;28;20098;-67
2020/12/01 11:58:06;;;;;;;37.78;20.17;;;;;;;;;;5059667;28;20048;-67
2020/12/01 12:00:32;;;;;;;36.45;19.65;;;;;;;;;;5039711;28;20124;-67
2020/12/01 12:02:58;;;;;;;33.30;17.58;;;;;;;;;;5049439;28;20044;-67
2020/12/01 12:05:25;;;;;;;37.88;19.40;;;;;;;;;;5052319;28;20052;-67
2020/12/01 12:07:51;;;;;;;30.80;17.65;;;;;;;;;;5036176;28;20045;-67
2020/12/01 12:10:17;;;;;;;35.28;18.55;;;;;;;;;;5044877;28;20101;-67
2020/12/01 12:12:43;;;;;;;36.10;18.80;;;;;;;;;;5051646;28;20041;-67
2020/12/01 12:15:09;;;;;;;32.08;18.35;;;;;;;;;;5039134;28;20037;-67
2020/12/01 12:17:36;;;;;;;41.15;20.67;;;;;;;;;;5040195;28;20053;-67
2020/12/01 12:20:02;;;;;;;37.92;20.67;;;;;;;;;;5051790;28;20037;-67
2020/12/01 12:22:28;;;;;;;38.08;18.67;;;;;;;;;;5055587;28;20507;-67
2020/12/01 12:24:54;;;;;;;35.08;19.15;;;;;;;;;;5041794;28;20501;-67
2020/12/01 12:27:21;;;;;;;35.42;18.92;;;;;;;;;;5041676;28;20041;-67
2020/12/01 12:29:47;;;;;;;32.75;18.35;;;;;;;;;;5052899;28;20385;-67
2020/12/01 12:32:13;;;;;;;40.85;21.30;;;;;;;;;;5041091;28;20400;-67
2020/12/01 12:34:39;;;;;;;35.88;19.95;;;;;;;;;;5057961;28;20504;-67
2020/12/01 12:37:06;;;;;;;37.75;21.20;;;;;;;;;;5044012;28;20526;-67
2020/12/01 12:39:32;;;;;;;38.17;19.98;;;;;;;;;;5045032;28;20485;-67
2020/12/01 12:42:00;;;;;;;39.08;20.45;;;;;;;;;;5044271;28;20099;-67
2020/12/01 12:44:26;;;;;;;38.08;19.98;;;;;;;;;;5034052;28;20042;-67
2020/12/01 12:46:53;;;;;;;;;;;;;;;;;;5043412;28;20052;-67
2020/12/01 12:49:20;;;;;;;40.40;20.15;;;;;;;;;;5050764;28;19928;-67
2020/12/01 12:51:46;;;;;;;45.30;22.25;;;;;;;;;;5057888;28;20041;-68
2020/12/01 12:54:13;;;;;;;43.95;21.33;;;;;;;;;;5046400;28;20036;-67
2020/12/01 12:56:39;;;;;;;45.40;21.95;;;;;;;;;;5064467;28;20048;-67
2020/12/01 12:59:08;;;;;;;39.13;20.55;;;;;;;;;;5052008;28;20036;-67
2020/12/01 13:01:35;;;;;;;39.03;21.05;;;;;;;;;;5055444;28;20049;-67
2020/12/01 13:04:02;;;;;;;41.13;22.13;;;;;;;;;;5050451;28;20045;-67
2020/12/01 13:06:28;;;;;;;44.95;22.10;;;;;;;;;;5042227;28;20030;-67
2020/12/01 13:08:54;;;;;;;51.05;23.90;;;;;;;;;;5044996;28;20122;-67
2020/12/01 13:11:20;;;;;;;51.55;22.92;;;;;;;;;;5050330;28;20654;-67
2020/12/01 13:13:47;;;;;;;49.58;21.50;;;;;;;;;;5036202;28;20049;-67
2020/12/01 13:16:14;;;;;;;50.17;23.85;;;;;;;;;;5040355;28;20037;-67
2020/12/01 13:18:41;;;;;;;47.33;23.17;;;;;;;;;;5045492;28;20040;-67
2020/12/01 13:21:07;;;;;;;54.08;24.35;;;;;;;;;;5043231;28;20037;-67
2020/12/01 13:23:34;;;;;;;51.35;23.40;;;;;;;;;;5054471;28;20060;-67
2020/12/01 13:26:00;;;;;;;45.25;23.00;;;;;;;;;;5047303;28;20044;-67
2020/12/01 13:28:27;;;;;;;50.80;23.30;;;;;;;;;;5057696;28;20131;-67
2020/12/01 13:30:53;;;;;;;45.92;22.52;;;;;;;;;;5053941;28;20045;-67
2020/12/01 13:33:19;;;;;;;58.25;24.48;;;;;;;;;;5042548;28;20124;-67
2020/12/01 13:35:45;;;;;;;65.07;25.75;;;;;;;;;;5050735;28;20044;-67
2020/12/01 13:38:12;;;;;;;54.42;23.33;;;;;;;;;;5049371;28;20037;-67
2020/12/01 13:40:38;;;;;;;55.87;23.10;;;;;;;;;;5048971;28;20041;-67
2020/12/01 13:43:05;;;;;;;67.25;24.85;;;;;;;;;;5049815;28;20786;-67
2020/12/01 13:45:31;;;;;;;74.22;26.75;;;;;;;;;;5048886;28;20052;-67
2020/12/01 13:47:58;;;;;;;79.97;25.85;;;;;;;;;;5047607;28;20054;-67
2020/12/01 13:50:25;;;;;;;62.15;25.50;;;;;;;;;;5041972;28;20056;-67
2020/12/01 13:52:52;;;;;;;57.22;23.42;;;;;;;;;;5059788;28;20055;-67
2020/12/01 13:55:18;;;;;;;60.55;24.67;;;;;;;;;;5039757;28;20049;-67
2020/12/01 13:57:45;;;;;;;53.30;23.83;;;;;;;;;;5046191;28;20492;-67
2020/12/01 14:00:30;;;;;;;56.00;23.52;;;;;;;;;;5051620;28;20037;-67
2020/12/01 14:02:57;;;;;;;54.78;23.75;;;;;;;;;;5042663;28;20509;-67
2020/12/01 14:05:24;;;;;;;59.80;25.10;;;;;;;;;;5042547;28;20036;-67
2020/12/01 14:07:51;;;;;;;56.17;23.90;;;;;;;;;;5044810;28;20048;-67
2020/12/01 14:10:18;;;;;;;54.80;23.50;;;;;;;;;;5041755;28;20083;-67
2020/12/01 14:12:44;;;;;;;53.90;23.03;;;;;;;;;;5052189;28;20047;-67
2020/12/01 14:15:11;;;;;;;57.38;24.98;;;;;;;;;;5044604;28;20037;-67
2020/12/01 14:17:38;;;;;;;62.17;25.25;;;;;;;;;;5044142;28;20057;-67
2020/12/01 14:20:05;;;;;;;61.83;26.35;;;;;;;;;;5053502;28;20488;-67
2020/12/01 14:22:34;;;;;;;61.22;25.40;;;;;;;;;;5051521;28;20041;-67
2020/12/01 14:25:01;;;;;;;67.57;26.45;;;;;;;;;;5049376;28;20052;-67
2020/12/01 14:27:27;;;;;;;66.85;26.02;;;;;;;;;;5056250;28;20047;-67
2020/12/01 14:29:54;;;;;;;63.53;25.52;;;;;;;;;;5052352;28;20560;-67
2020/12/01 14:32:21;;;;;;;63.35;24.92;;;;;;;;;;5055438;28;20572;-67
2020/12/01 14:34:47;;;;;;;70.85;26.27;;;;;;;;;;5051844;28;20045;-67
2020/12/01 14:37:14;;;;;;;66.57;24.90;;;;;;;;;;5036245;28;20127;-67
2020/12/01 14:39:45;;;;;;;70.70;26.65;;;;;;;;;;5058013;28;20041;-67
2020/12/01 14:42:12;;;;;;;61.08;24.10;;;;;;;;;;5049016;28;20060;-67
2020/12/01 14:44:39;;;;;;;54.20;22.70;;;;;;;;;;5040579;28;20033;-67
2020/12/01 14:47:14;;;;;;;63.13;24.25;;;;;;;;;;5040023;28;20053;-67
2020/12/01 14:49:49;;;;;;;61.38;24.20;;;;;;;;;;5052170;28;20057;-67
2020/12/01 14:52:15;;;;;;;56.35;23.02;;;;;;;;;;5041145;28;20125;-67
2020/12/01 14:54:51;;;;;;;53.88;22.52;;;;;;;;;;5045958;28;20041;-67
2020/12/01 14:57:24;;;;;;;57.70;23.17;;;;;;;;;;5052824;28;20056;-67
2020/12/01 15:00:01;;;;;;;54.70;21.60;;;;;;;;;;5053056;28;20049;-67
2020/12/01 15:02:30;;;;;;;48.35;21.08;;;;;;;;;;5047882;28;20110;-67
2020/12/01 15:05:11;;;;;;;51.60;21.35;;;;;;;;;;5047461;28;20033;-67
2020/12/01 15:07:58;;;;;;;55.28;22.38;;;;;;;;;;5052061;28;20128;-67